• Join FlightAware (Why Join?)
  • Login
  • US Flag 
10:51PM EST


 

Airport Tracker/Info


-or-


 

Live Flight TrackerFlight Track Log ✈ SWA1319 ✈ 22-Apr-2013 ✈ KPDX - KOAK

Flight Track Log - Related Links

Times and Time Zones

All times are in EDT time to prevent confusion due to time zone crossing. See the SWA1319 flight status page for this flight to view local times or setup timezone preferences in your user account.

Time Position Orientation Groundspeed Altitude Reporting Facility
EDT Latitude Longitude Course Direction KTS MPH feet Rate Location/Type
10:38PM 45.5689 -122.4939 103° East 214 246 2,700  Level Seattle Center
10:39PM 45.5569 -122.4122 102° East 210 242 5,900 2,760 Climbing Seattle Center
10:40PM 45.5019 -122.4275 191° South 257 296 8,500 2,280 Climbing Seattle Center
10:41PM 45.4550 -122.5233 235° Southwest 289 333 10,600 2,340 Climbing Seattle Center
10:42PM 45.3983 -122.6358 234° Southwest 339 390 13,300 2,400 Climbing Seattle Center
10:43PM 45.3369 -122.7481 232° Southwest 359 413 15,500 2,160 Climbing Seattle Center
10:44PM 45.2733 -122.8703 234° Southwest 381 438 17,800 2,280 Climbing Seattle Center
10:45PM 45.1903 -122.9664 219° Southwest 399 459 20,100 1,980 Climbing Seattle Center
10:46PM 45.0672 -122.9642 179° South 436 502 21,800 1,740 Climbing Seattle Center
10:47PM 44.9411 -122.9578 178° South 446 513 23,700 1,980 Climbing Seattle Center
10:48PM 44.8106 -122.9531 179° South 460 529 25,900 1,800 Climbing Seattle Center
10:49PM 44.6806 -122.9486 179° South 462 532 27,400 1,260 Climbing Seattle Center
10:50PM 44.5461 -122.9442 179° South 474 545 28,500 1,320 Climbing Seattle Center
10:51PM 44.4075 -122.9386 178° South 490 564 30,100 1,440 Climbing Seattle Center
10:52PM 44.2475 -122.9333 179° South 499 574 31,500 1,320 Climbing Seattle Center
10:53PM 44.1064 -122.9306 179° South 501 577 32,900 1,080 Climbing Seattle Center
10:54PM 43.9650 -122.9253 178° South 503 579 33,800 1,020 Climbing Seattle Center
10:55PM 43.8219 -122.9222 179° South 508 585 35,000 540 Climbing Seattle Center
10:56PM 43.6803 -122.9186 179° South 508 585 35,000  Level Seattle Center
10:57PM 43.5383 -122.9139 179° South 507 583 35,000  Level Seattle Center
10:58PM 43.3964 -122.9086 178° South 508 585 35,000  Level Seattle Center
10:59PM 43.2553 -122.9036 179° South 508 585 35,000  Level Seattle Center
11:00PM 43.1142 -122.8992 179° South 506 582 35,000  Level Seattle Center
11:02PM 42.9728 -122.8958 179° South 507 583 35,000  Level Seattle Center
11:03PM 42.8319 -122.8911 179° South 506 582 35,000  Level Seattle Center
11:04PM 42.6850 -122.8878 179° South 503 579 35,000  Level Seattle Center
11:05PM 42.5475 -122.8847 179° South 498 573 35,000  Level Seattle Center
11:06PM 42.4114 -122.8794 178° South 494 568 35,000  Level Seattle Center
11:07PM 42.2753 -122.8767 179° South 491 565 35,000  Level Seattle Center
11:08PM 42.1389 -122.8728 179° South 494 568 35,000  Level Seattle Center
11:09PM 42.0039 -122.8694 179° South 488 562 35,000  Level Seattle Center
11:10PM 41.8706 -122.8653 179° South 485 558 35,000  Level Seattle Center
11:11PM 41.7103 -122.8608 179° South 483 556 35,000  Level Seattle Center
11:12PM 41.5767 -122.8586 179° South 482 555 35,000  Level Seattle Center
11:13PM 41.4439 -122.8511 178° South 480 552 35,000  Level Seattle Center
11:14PM 41.3100 -122.8414 177° South 478 550 35,000  Level Seattle Center
11:15PM 41.1775 -122.8300 176° South 477 549 35,000  Level Seattle Center
11:15PM 41.1239 -122.8278 178° South 480 552 35,000  Level Oakland Center
11:16PM 40.9922 -122.8197 177° South 477 549 35,000  Level Oakland Center
11:17PM 40.8606 -122.8092 177° South 475 547 35,000  Level Oakland Center
11:18PM 40.7297 -122.8008 177° South 474 545 35,000  Level Oakland Center
11:19PM 40.5989 -122.7908 177° South 473 544 35,000  Level Oakland Center
11:20PM 40.4422 -122.7803 177° South 471 542 35,000  Level Oakland Center
11:21PM 40.3131 -122.7719 177° South 468 539 35,000  Level Oakland Center
11:22PM 40.1842 -122.7628 177° South 468 539 35,000  Level Oakland Center
11:23PM 40.0556 -122.7539 177° South 468 539 35,000  Level Oakland Center
11:24PM 39.9269 -122.7453 177° South 467 537 35,000  Level Oakland Center
11:25PM 39.7997 -122.7372 177° South 462 532 35,000  Level Oakland Center
11:26PM 39.6750 -122.7278 177° South 450 518 35,000  Level Oakland Center
11:27PM 39.5469 -122.7194 177° South 459 528 35,000  Level Oakland Center
11:28PM 39.3950 -122.7089 177° South 458 527 35,000 -600 Level Oakland Center
11:29PM 39.2689 -122.7008 177° South 456 525 33,800 -1,980 Descending Oakland Center
11:30PM 39.1592 -122.6925 177° South 452 520 31,000 -3,060 Descending Oakland Center
11:31PM 39.0303 -122.6836 177° South 459 528 27,600 -3,240 Descending Oakland Center
11:32PM 38.8886 -122.6733 177° South 455 524 24,500 -2,940 Descending Oakland Center
11:33PM 38.7658 -122.6644 177° South 443 510 21,700 -2,640 Descending Oakland Center
11:34PM 38.6461 -122.6578 178° South 434 499 19,200 -2,520 Descending Oakland Center
11:35PM 38.5314 -122.6500 177° South 420 483 16,600 -2,520 Descending Oakland Center
11:36PM 38.4200 -122.6294 172° South 409 471 14,100 -2,460 Descending Oakland Center
11:37PM 38.3122 -122.6089 171° South 397 457 11,700 -1,980 Descending Oakland Center
11:38PM 38.2094 -122.5900 172° South 382 440 10,100 -1,140 Descending Oakland Center
11:40PM 38.1250 -122.5656 167° South 322 371 9,500 -840 Descending Oakland Center
11:41PM 38.0561 -122.5056 146° Southeast 300 345 8,500 -1,020 Descending Oakland Center
11:42PM 37.9872 -122.4458 146° Southeast 296 341 7,500 -1,080 Descending Oakland Center
11:43PM 37.9192 -122.3875 146° Southeast 292 336 6,400 -1,020 Descending Oakland Center
11:44PM 37.8544 -122.3286 144° Southeast 287 330 5,500 -780 Descending Oakland Center
11:45PM 37.7989 -122.2364 127° Southeast 278 320 4,900 -1,020 Descending Oakland Center
11:46PM 37.7550 -122.1636 127° Southeast 269 310 3,500 -780 Descending Oakland Center
11:47PM 37.7128 -122.0939 127° Southeast 260 299 3,400 -300 Descending Oakland Center
11:48PM 37.6647 -122.0550 147° Southeast 248 285 3,000 -780 Descending Oakland Center
11:49PM 37.6558 -122.1225 261° West 227 261 1,900 -1,080 Descending Oakland Center
11:50PM 37.6700 -122.1753 289° West 189 217 900 -840 Descending Oakland Center
11:51PM 37.6956 -122.2056 317° Northwest 147 169 200 -720 Descending Oakland Center